sensor_id;sensor_type;location;lat;lon;timestamp;pressure;altitude;pressure_sealevel;temperature;humidity
74544;BME280;63016;55.030;38.710;2023-03-01T00:01:40;99143.38;;;-1.90;58.03
74544;BME280;63016;55.030;38.710;2023-03-01T00:04:05;99147.19;;;-1.96;58.53
74544;BME280;63016;55.030;38.710;2023-03-01T00:06:31;99140.53;;;-1.98;57.90
74544;BME280;63016;55.030;38.710;2023-03-01T00:08:57;99141.56;;;-2.01;58.16
74544;BME280;63016;55.030;38.710;2023-03-01T00:11:25;99136.75;;;-2.05;57.63
74544;BME280;63016;55.030;38.710;2023-03-01T00:13:54;99136.25;;;-2.11;58.04
74544;BME280;63016;55.030;38.710;2023-03-01T00:16:29;99133.81;;;-2.12;58.29
74544;BME280;63016;55.030;38.710;2023-03-01T00:18:56;99126.53;;;-2.18;57.53
74544;BME280;63016;55.030;38.710;2023-03-01T00:21:23;99135.38;;;-2.22;57.73
74544;BME280;63016;55.030;38.710;2023-03-01T00:23:48;99120.34;;;-2.27;58.10
74544;BME280;63016;55.030;38.710;2023-03-01T00:26:15;99121.47;;;-2.31;57.95
74544;BME280;63016;55.030;38.710;2023-03-01T00:28:42;99120.13;;;-2.37;58.12
74544;BME280;63016;55.030;38.710;2023-03-01T00:31:11;99118.59;;;-2.39;57.61
74544;BME280;63016;55.030;38.710;2023-03-01T00:33:36;99114.53;;;-2.42;57.99
74544;BME280;63016;55.030;38.710;2023-03-01T00:36:03;99116.34;;;-2.44;57.88
74544;BME280;63016;55.030;38.710;2023-03-01T00:38:28;99114.09;;;-2.48;57.80
74544;BME280;63016;55.030;38.710;2023-03-01T00:40:54;99105.09;;;-2.54;57.56
74544;BME280;63016;55.030;38.710;2023-03-01T00:43:20;99113.47;;;-2.52;57.70
74544;BME280;63016;55.030;38.710;2023-03-01T00:45:45;99113.59;;;-2.53;58.09
74544;BME280;63016;55.030;38.710;2023-03-01T00:48:10;99112.16;;;-2.58;57.96
74544;BME280;63016;55.030;38.710;2023-03-01T00:50:36;99109.59;;;-2.58;58.00
74544;BME280;63016;55.030;38.710;2023-03-01T00:53:01;99103.66;;;-2.58;57.78
74544;BME280;63016;55.030;38.710;2023-03-01T00:55:27;99108.16;;;-2.62;57.88
74544;BME280;63016;55.030;38.710;2023-03-01T00:57:53;99104.91;;;-2.64;58.12
74544;BME280;63016;55.030;38.710;2023-03-01T01:00:19;99110.13;;;-2.65;57.66
74544;BME280;63016;55.030;38.710;2023-03-01T01:02:45;99102.66;;;-2.68;57.94
74544;BME280;63016;55.030;38.710;2023-03-01T01:05:11;99106.22;;;-2.71;57.68
74544;BME280;63016;55.030;38.710;2023-03-01T01:07:36;99103.75;;;-2.72;57.82
74544;BME280;63016;55.030;38.710;2023-03-01T01:10:02;99104.69;;;-2.73;57.96
74544;BME280;63016;55.030;38.710;2023-03-01T01:12:28;99104.88;;;-2.76;57.81
74544;BME280;63016;55.030;38.710;2023-03-01T01:14:53;99094.88;;;-2.79;58.18
74544;BME280;63016;55.030;38.710;2023-03-01T01:17:19;99100.81;;;-2.79;58.18
74544;BME280;63016;55.030;38.710;2023-03-01T01:19:45;99103.53;;;-2.82;58.19
74544;BME280;63016;55.030;38.710;2023-03-01T01:22:10;99090.28;;;-2.87;58.14
74544;BME280;63016;55.030;38.710;2023-03-01T01:24:36;99087.91;;;-2.90;58.01
74544;BME280;63016;55.030;38.710;2023-03-01T01:27:01;99092.31;;;-2.92;57.82
74544;BME280;63016;55.030;38.710;2023-03-01T01:29:27;99096.41;;;-2.90;58.13
74544;BME280;63016;55.030;38.710;2023-03-01T01:31:52;99095.69;;;-2.92;57.98
74544;BME280;63016;55.030;38.710;2023-03-01T01:34:20;99104.38;;;-2.94;57.90
74544;BME280;63016;55.030;38.710;2023-03-01T01:36:52;99107.91;;;-2.97;57.44
74544;BME280;63016;55.030;38.710;2023-03-01T01:39:21;99113.22;;;-3.00;57.69
74544;BME280;63016;55.030;38.710;2023-03-01T01:41:47;99108.31;;;-3.03;57.85
74544;BME280;63016;55.030;38.710;2023-03-01T01:49:33;99099.34;;;-3.08;57.70
74544;BME280;63016;55.030;38.710;2023-03-01T01:52:02;99099.13;;;-3.05;57.54
74544;BME280;63016;55.030;38.710;2023-03-01T01:57:03;99105.66;;;-3.14;58.09
74544;BME280;63016;55.030;38.710;2023-03-01T01:59:32;99111.88;;;-3.18;57.67
74544;BME280;63016;55.030;38.710;2023-03-01T02:02:00;99107.75;;;-3.21;58.18
74544;BME280;63016;55.030;38.710;2023-03-01T02:04:29;99109.59;;;-3.23;57.71
74544;BME280;63016;55.030;38.710;2023-03-01T02:07:09;99113.88;;;-3.23;57.74
74544;BME280;63016;55.030;38.710;2023-03-01T02:09:38;99098.25;;;-3.31;58.15
74544;BME280;63016;55.030;38.710;2023-03-01T02:12:04;99104.69;;;-3.26;57.73
74544;BME280;63016;55.030;38.710;2023-03-01T02:14:30;99098.88;;;-3.28;57.91
74544;BME280;63016;55.030;38.710;2023-03-01T02:16:56;99099.88;;;-3.30;58.03
74544;BME280;63016;55.030;38.710;2023-03-01T02:25:21;99105.09;;;-3.32;57.70
74544;BME280;63016;55.030;38.710;2023-03-01T02:30:39;99096.16;;;-3.39;57.17
74544;BME280;63016;55.030;38.710;2023-03-01T02:33:26;99103.00;;;-3.40;57.84
74544;BME280;63016;55.030;38.710;2023-03-01T02:35:53;99102.19;;;-3.40;57.60
74544;BME280;63016;55.030;38.710;2023-03-01T02:38:21;99108.22;;;-3.41;57.66
74544;BME280;63016;55.030;38.710;2023-03-01T02:40:49;99105.03;;;-3.45;57.39
74544;BME280;63016;55.030;38.710;2023-03-01T02:43:16;99106.75;;;-3.45;57.54
74544;BME280;63016;55.030;38.710;2023-03-01T02:45:50;99106.75;;;-3.45;57.84
74544;BME280;63016;55.030;38.710;2023-03-01T02:48:16;99101.84;;;-3.48;57.83
74544;BME280;63016;55.030;38.710;2023-03-01T02:53:44;99100.22;;;-3.49;57.66
74544;BME280;63016;55.030;38.710;2023-03-01T02:56:07;99112.25;;;-3.51;58.10
74544;BME280;63016;55.030;38.710;2023-03-01T02:58:40;99108.97;;;-3.53;58.10
74544;BME280;63016;55.030;38.710;2023-03-01T03:01:13;99114.16;;;-3.55;58.01
74544;BME280;63016;55.030;38.710;2023-03-01T03:03:41;99118.44;;;-3.55;58.13
74544;BME280;63016;55.030;38.710;2023-03-01T03:06:06;99121.09;;;-3.57;58.01
74544;BME280;63016;55.030;38.710;2023-03-01T03:08:32;99120.19;;;-3.56;57.93
74544;BME280;63016;55.030;38.710;2023-03-01T03:10:57;99112.66;;;-3.57;57.84
74544;BME280;63016;55.030;38.710;2023-03-01T03:13:23;99108.44;;;-3.58;57.94
74544;BME280;63016;55.030;38.710;2023-03-01T03:15:54;99110.28;;;-3.60;57.62
74544;BME280;63016;55.030;38.710;2023-03-01T03:18:20;99114.56;;;-3.61;57.88
74544;BME280;63016;55.030;38.710;2023-03-01T03:20:46;99109.91;;;-3.69;57.95
74544;BME280;63016;55.030;38.710;2023-03-01T03:23:12;99115.75;;;-3.67;57.65
74544;BME280;63016;55.030;38.710;2023-03-01T03:25:38;99106.44;;;-3.68;57.59
74544;BME280;63016;55.030;38.710;2023-03-01T03:28:04;99106.56;;;-3.69;57.63
74544;BME280;63016;55.030;38.710;2023-03-01T03:30:36;99098.63;;;-3.65;57.36
74544;BME280;63016;55.030;38.710;2023-03-01T03:33:04;99091.91;;;-3.66;57.74
74544;BME280;63016;55.030;38.710;2023-03-01T03:35:33;99099.94;;;-3.72;57.93
74544;BME280;63016;55.030;38.710;2023-03-01T03:38:01;99094.19;;;-3.75;57.77
74544;BME280;63016;55.030;38.710;2023-03-01T03:40:35;99112.22;;;-3.78;57.90
74544;BME280;63016;55.030;38.710;2023-03-01T03:43:13;99106.19;;;-3.77;57.80
74544;BME280;63016;55.030;38.710;2023-03-01T03:45:38;99108.97;;;-3.80;57.58
74544;BME280;63016;55.030;38.710;2023-03-01T03:48:07;99109.94;;;-3.83;58.11
74544;BME280;63016;55.030;38.710;2023-03-01T03:50:33;99107.31;;;-3.81;57.80
74544;BME280;63016;55.030;38.710;2023-03-01T03:53:04;99108.31;;;-3.84;57.93
74544;BME280;63016;55.030;38.710;2023-03-01T03:55:30;99113.41;;;-3.84;57.72
74544;BME280;63016;55.030;38.710;2023-03-01T03:58:00;99119.44;;;-3.85;57.45
74544;BME280;63016;55.030;38.710;2023-03-01T04:00:33;99115.25;;;-3.86;57.45
74544;BME280;63016;55.030;38.710;2023-03-01T04:02:59;99112.88;;;-3.89;57.55
74544;BME280;63016;55.030;38.710;2023-03-01T04:05:26;99118.25;;;-3.94;57.58
74544;BME280;63016;55.030;38.710;2023-03-01T04:07:52;99111.00;;;-4.00;57.58
74544;BME280;63016;55.030;38.710;2023-03-01T04:10:46;99118.44;;;-3.97;57.76
74544;BME280;63016;55.030;38.710;2023-03-01T04:13:22;99120.16;;;-3.97;57.53
74544;BME280;63016;55.030;38.710;2023-03-01T04:15:52;99114.34;;;-3.99;57.32
74544;BME280;63016;55.030;38.710;2023-03-01T04:18:19;99115.34;;;-4.02;57.27
74544;BME280;63016;55.030;38.710;2023-03-01T04:20:49;99118.09;;;-4.05;57.17
74544;BME280;63016;55.030;38.710;2023-03-01T04:23:18;99119.19;;;-4.09;57.12
74544;BME280;63016;55.030;38.710;2023-03-01T04:28:38;99128.63;;;-4.11;57.53
74544;BME280;63016;55.030;38.710;2023-03-01T04:31:14;99128.72;;;-4.13;57.28
74544;BME280;63016;55.030;38.710;2023-03-01T04:33:42;99136.47;;;-4.14;57.21
74544;BME280;63016;55.030;38.710;2023-03-01T04:36:09;99139.19;;;-4.17;57.28
74544;BME280;63016;55.030;38.710;2023-03-01T04:38:36;99139.28;;;-4.19;57.30
74544;BME280;63016;55.030;38.710;2023-03-01T04:41:04;99142.81;;;-4.21;57.32
74544;BME280;63016;55.030;38.710;2023-03-01T04:43:30;99136.09;;;-4.22;57.53
74544;BME280;63016;55.030;38.710;2023-03-01T04:46:00;99142.66;;;-4.18;57.45
74544;BME280;63016;55.030;38.710;2023-03-01T04:48:28;99137.72;;;-4.21;57.39
74544;BME280;63016;55.030;38.710;2023-03-01T04:50:53;99142.75;;;-4.20;57.37
74544;BME280;63016;55.030;38.710;2023-03-01T04:53:19;99148.66;;;-4.19;57.30
74544;BME280;63016;55.030;38.710;2023-03-01T04:55:44;99149.66;;;-4.22;57.21
74544;BME280;63016;55.030;38.710;2023-03-01T04:58:10;99153.00;;;-4.21;57.63
74544;BME280;63016;55.030;38.710;2023-03-01T05:00:35;99145.38;;;-4.21;57.86
74544;BME280;63016;55.030;38.710;2023-03-01T05:03:00;99157.03;;;-4.17;57.80
74544;BME280;63016;55.030;38.710;2023-03-01T05:05:37;99161.03;;;-4.13;57.70
74544;BME280;63016;55.030;38.710;2023-03-01T05:08:07;99162.59;;;-4.10;57.50
74544;BME280;63016;55.030;38.710;2023-03-01T05:10:34;99160.03;;;-4.10;57.88
74544;BME280;63016;55.030;38.710;2023-03-01T05:13:01;99167.47;;;-4.07;57.85
74544;BME280;63016;55.030;38.710;2023-03-01T05:15:29;99168.84;;;-4.02;57.81
74544;BME280;63016;55.030;38.710;2023-03-01T05:17:57;99168.78;;;-4.00;58.10
74544;BME280;63016;55.030;38.710;2023-03-01T05:20:27;99182.78;;;-3.93;58.28
74544;BME280;63016;55.030;38.710;2023-03-01T05:22:56;99179.94;;;-3.89;58.05
74544;BME280;63016;55.030;38.710;2023-03-01T05:25:22;99182.13;;;-3.82;58.05
74544;BME280;63016;55.030;38.710;2023-03-01T05:27:47;99172.47;;;-3.77;58.29
74544;BME280;63016;55.030;38.710;2023-03-01T05:30:13;99170.50;;;-3.72;58.09
74544;BME280;63016;55.030;38.710;2023-03-01T05:32:41;99174.38;;;-3.67;58.09
74544;BME280;63016;55.030;38.710;2023-03-01T05:35:08;99171.56;;;-3.62;58.19
74544;BME280;63016;55.030;38.710;2023-03-01T05:37:33;99185.66;;;-3.56;58.35
74544;BME280;63016;55.030;38.710;2023-03-01T05:40:04;99183.66;;;-3.51;58.25
74544;BME280;63016;55.030;38.710;2023-03-01T05:42:30;99183.38;;;-3.47;58.13
74544;BME280;63016;55.030;38.710;2023-03-01T05:44:55;99187.38;;;-3.43;57.83
74544;BME280;63016;55.030;38.710;2023-03-01T05:47:21;99195.63;;;-3.39;57.96
74544;BME280;63016;55.030;38.710;2023-03-01T05:49:47;99186.06;;;-3.36;58.38
74544;BME280;63016;55.030;38.710;2023-03-01T05:52:14;99191.69;;;-3.30;58.15
74544;BME280;63016;55.030;38.710;2023-03-01T05:54:40;99186.22;;;-3.24;58.44
74544;BME280;63016;55.030;38.710;2023-03-01T05:57:05;99194.31;;;-3.18;58.02
74544;BME280;63016;55.030;38.710;2023-03-01T05:59:31;99193.41;;;-3.17;58.18
74544;BME280;63016;55.030;38.710;2023-03-01T06:01:56;99199.03;;;-3.12;58.43
74544;BME280;63016;55.030;38.710;2023-03-01T06:04:21;99193.63;;;-3.07;58.32
74544;BME280;63016;55.030;38.710;2023-03-01T06:06:47;99202.75;;;-3.03;58.34
74544;BME280;63016;55.030;38.710;2023-03-01T06:09:12;99197.25;;;-2.97;58.30
74544;BME280;63016;55.030;38.710;2023-03-01T06:11:38;99196.13;;;-2.93;58.56
74544;BME280;63016;55.030;38.710;2023-03-01T06:14:04;99202.59;;;-2.87;58.06
74544;BME280;63016;55.030;38.710;2023-03-01T06:16:31;99201.38;;;-2.81;58.54
74544;BME280;63016;55.030;38.710;2023-03-01T06:18:57;99207.09;;;-2.78;58.59
74544;BME280;63016;55.030;38.710;2023-03-01T06:21:22;99210.00;;;-2.70;58.07
74544;BME280;63016;55.030;38.710;2023-03-01T06:23:47;99208.97;;;-2.67;58.41
74544;BME280;63016;55.030;38.710;2023-03-01T06:26:13;99211.97;;;-2.61;58.54
74544;BME280;63016;55.030;38.710;2023-03-01T06:28:38;99207.25;;;-2.54;58.78
74544;BME280;63016;55.030;38.710;2023-03-01T06:31:04;99210.16;;;-2.46;58.42
74544;BME280;63016;55.030;38.710;2023-03-01T06:33:31;99211.38;;;-2.39;58.97
74544;BME280;63016;55.030;38.710;2023-03-01T06:35:57;99215.88;;;-2.29;58.81
74544;BME280;63016;55.030;38.710;2023-03-01T06:38:23;99224.28;;;-2.15;58.74
74544;BME280;63016;55.030;38.710;2023-03-01T06:40:53;99226.22;;;-2.05;59.20
74544;BME280;63016;55.030;38.710;2023-03-01T06:43:19;99219.56;;;-1.95;59.04
74544;BME280;63016;55.030;38.710;2023-03-01T06:45:45;99230.00;;;-1.86;59.21
74544;BME280;63016;55.030;38.710;2023-03-01T06:48:10;99226.72;;;-1.75;59.22
74544;BME280;63016;55.030;38.710;2023-03-01T06:50:37;99239.69;;;-1.65;58.61
74544;BME280;63016;55.030;38.710;2023-03-01T06:53:03;99235.81;;;-1.58;59.30
74544;BME280;63016;55.030;38.710;2023-03-01T06:55:28;99234.47;;;-1.51;58.40
74544;BME280;63016;55.030;38.710;2023-03-01T06:57:55;99237.63;;;-1.47;58.40
74544;BME280;63016;55.030;38.710;2023-03-01T07:00:22;99235.47;;;-1.41;58.92
74544;BME280;63016;55.030;38.710;2023-03-01T07:02:47;99233.41;;;-1.36;59.06
74544;BME280;63016;55.030;38.710;2023-03-01T07:05:13;99240.88;;;-1.33;58.16
74544;BME280;63016;55.030;38.710;2023-03-01T07:07:38;99244.84;;;-1.28;58.56
74544;BME280;63016;55.030;38.710;2023-03-01T07:10:05;99247.09;;;-1.24;58.41
74544;BME280;63016;55.030;38.710;2023-03-01T07:12:30;99243.28;;;-1.18;58.71
74544;BME280;63016;55.030;38.710;2023-03-01T07:14:56;99246.97;;;-1.10;58.70
74544;BME280;63016;55.030;38.710;2023-03-01T07:17:21;99244.78;;;-1.03;58.64
74544;BME280;63016;55.030;38.710;2023-03-01T07:19:47;99254.97;;;-0.90;58.61
74544;BME280;63016;55.030;38.710;2023-03-01T07:22:12;99249.22;;;-0.81;59.23
74544;BME280;63016;55.030;38.710;2023-03-01T07:24:38;99246.69;;;-0.70;59.48
74544;BME280;63016;55.030;38.710;2023-03-01T07:27:03;99250.22;;;-0.60;59.26
74544;BME280;63016;55.030;38.710;2023-03-01T07:29:29;99259.13;;;-0.53;58.25
74544;BME280;63016;55.030;38.710;2023-03-01T07:31:54;99256.22;;;-0.48;58.86
74544;BME280;63016;55.030;38.710;2023-03-01T07:34:20;99260.19;;;-0.44;58.97
74544;BME280;63016;55.030;38.710;2023-03-01T07:36:45;99255.53;;;-0.39;58.73
74544;BME280;63016;55.030;38.710;2023-03-01T07:39:11;99248.22;;;-0.32;59.43
74544;BME280;63016;55.030;38.710;2023-03-01T07:41:37;99253.50;;;-0.22;58.83
74544;BME280;63016;55.030;38.710;2023-03-01T07:44:03;99261.53;;;-0.16;59.10
74544;BME280;63016;55.030;38.710;2023-03-01T07:46:28;99253.41;;;-0.10;58.83
74544;BME280;63016;55.030;38.710;2023-03-01T07:48:54;99262.41;;;-0.04;58.76
74544;BME280;63016;55.030;38.710;2023-03-01T07:51:19;99259.03;;;0.07;58.63
74544;BME280;63016;55.030;38.710;2023-03-01T07:53:48;99263.81;;;0.11;59.15
74544;BME280;63016;55.030;38.710;2023-03-01T07:56:15;99263.34;;;0.17;58.96
74544;BME280;63016;55.030;38.710;2023-03-01T07:58:43;99270.84;;;0.20;59.00
74544;BME280;63016;55.030;38.710;2023-03-01T08:01:14;99271.31;;;0.25;58.80
74544;BME280;63016;55.030;38.710;2023-03-01T08:03:40;99279.47;;;0.31;58.25
74544;BME280;63016;55.030;38.710;2023-03-01T08:06:09;99275.75;;;0.35;59.33
74544;BME280;63016;55.030;38.710;2023-03-01T08:08:35;99281.22;;;0.41;58.64
74544;BME280;63016;55.030;38.710;2023-03-01T08:11:02;99285.19;;;0.45;59.16
74544;BME280;63016;55.030;38.710;2023-03-01T08:13:29;99289.97;;;0.50;59.11
74544;BME280;63016;55.030;38.710;2023-03-01T08:15:59;99279.59;;;0.51;58.43
74544;BME280;63016;55.030;38.710;2023-03-01T08:18:25;99276.56;;;0.58;58.75
74544;BME280;63016;55.030;38.710;2023-03-01T08:20:51;99278.78;;;0.62;58.64
74544;BME280;63016;55.030;38.710;2023-03-01T08:23:18;99281.81;;;0.67;58.30
74544;BME280;63016;55.030;38.710;2023-03-01T08:25:44;99290.91;;;0.71;58.60
74544;BME280;63016;55.030;38.710;2023-03-01T08:28:09;99293.47;;;0.71;57.68
74544;BME280;63016;55.030;38.710;2023-03-01T08:30:35;99287.66;;;0.69;57.82
74544;BME280;63016;55.030;38.710;2023-03-01T08:33:00;99298.59;;;0.71;58.77
74544;BME280;63016;55.030;38.710;2023-03-01T08:35:26;99302.69;;;0.74;58.65
74544;BME280;63016;55.030;38.710;2023-03-01T08:37:51;99300.25;;;0.84;58.69
74544;BME280;63016;55.030;38.710;2023-03-01T08:40:17;99301.53;;;0.89;59.12
74544;BME280;63016;55.030;38.710;2023-03-01T08:42:42;99307.47;;;0.90;58.22
74544;BME280;63016;55.030;38.710;2023-03-01T08:45:09;99304.56;;;0.83;58.15
74544;BME280;63016;55.030;38.710;2023-03-01T08:47:35;99308.75;;;0.84;57.98
74544;BME280;63016;55.030;38.710;2023-03-01T08:50:01;99306.31;;;0.83;58.30
74544;BME280;63016;55.030;38.710;2023-03-01T08:52:27;99303.50;;;0.86;58.68
74544;BME280;63016;55.030;38.710;2023-03-01T08:54:53;99298.72;;;0.92;58.56
74544;BME280;63016;55.030;38.710;2023-03-01T08:57:18;99300.56;;;1.01;58.19
74544;BME280;63016;55.030;38.710;2023-03-01T08:59:44;99298.13;;;1.00;57.68
74544;BME280;63016;55.030;38.710;2023-03-01T09:02:15;99304.31;;;0.97;58.08
74544;BME280;63016;55.030;38.710;2023-03-01T09:04:41;99305.00;;;0.99;58.37
74544;BME280;63016;55.030;38.710;2023-03-01T09:07:07;99308.97;;;1.03;58.47
74544;BME280;63016;55.030;38.710;2023-03-01T09:09:33;99317.00;;;1.10;58.44
74544;BME280;63016;55.030;38.710;2023-03-01T09:11:58;99309.56;;;1.07;57.75
74544;BME280;63016;55.030;38.710;2023-03-01T09:14:24;99311.06;;;1.10;58.66
74544;BME280;63016;55.030;38.710;2023-03-01T09:16:50;99305.78;;;1.11;58.26
74544;BME280;63016;55.030;38.710;2023-03-01T09:19:16;99316.06;;;1.11;58.32
74544;BME280;63016;55.030;38.710;2023-03-01T09:21:42;99299.03;;;1.10;57.86
74544;BME280;63016;55.030;38.710;2023-03-01T09:24:18;99309.88;;;1.14;58.09
74544;BME280;63016;55.030;38.710;2023-03-01T09:26:44;99308.84;;;1.16;58.79
74544;BME280;63016;55.030;38.710;2023-03-01T09:29:12;99308.00;;;1.16;58.49
74544;BME280;63016;55.030;38.710;2023-03-01T09:31:38;99298.31;;;1.19;58.33
74544;BME280;63016;55.030;38.710;2023-03-01T09:34:03;99304.84;;;1.23;58.36
74544;BME280;63016;55.030;38.710;2023-03-01T09:36:29;99307.41;;;1.23;58.14
74544;BME280;63016;55.030;38.710;2023-03-01T09:38:55;99315.72;;;1.27;58.57
74544;BME280;63016;55.030;38.710;2023-03-01T09:44:29;99316.03;;;1.34;57.76
74544;BME280;63016;55.030;38.710;2023-03-01T09:46:57;99323.50;;;1.37;58.72
74544;BME280;63016;55.030;38.710;2023-03-01T09:49:32;99313.09;;;1.38;57.75
74544;BME280;63016;55.030;38.710;2023-03-01T09:54:54;99313.72;;;1.31;57.77
74544;BME280;63016;55.030;38.710;2023-03-01T10:00:13;99317.34;;;1.28;58.45
74544;BME280;63016;55.030;38.710;2023-03-01T10:05:34;99317.91;;;1.32;58.70
74544;BME280;63016;55.030;38.710;2023-03-01T10:08:23;99319.41;;;1.34;58.66
74544;BME280;63016;55.030;38.710;2023-03-01T10:10:52;99316.03;;;1.34;58.27
74544;BME280;63016;55.030;38.710;2023-03-01T10:13:45;99321.88;;;1.36;58.31
74544;BME280;63016;55.030;38.710;2023-03-01T10:16:15;99316.84;;;1.34;58.29
74544;BME280;63016;55.030;38.710;2023-03-01T10:18:44;99315.09;;;1.35;57.70
